Time;durP1;ratioP1;P1;durP2;ratioP2;P2;SDS_P1;SDS_P2;PMS_P1;PMS_P2;Temp;Humidity;BMP_temperature;BMP_pressure;BME280_temperature;BME280_humidity;BME280_pressure;Samples;Min_cycle;Max_cycle;Signal;HPM_P1;HPM_P2
2023/08/22 00:01:17;;;;;;;0.10;0.10;;;15.20;55.80;;;;;;5030262;28;20196;-60
2023/08/22 00:03:48;;;;;;;0.10;0.10;;;15.20;55.70;;;;;;5029922;28;20192;-61
2023/08/22 00:06:19;;;;;;;0.10;0.10;;;15.30;55.80;;;;;;5029933;28;20290;-61
2023/08/22 00:08:52;;;;;;;0.13;0.13;;;15.30;55.80;;;;;;5030090;28;20204;-61
2023/08/22 00:11:23;;;;;;;0.10;0.10;;;15.40;55.80;;;;;;5030327;28;20208;-61
2023/08/22 00:13:54;;;;;;;0.20;0.20;;;15.40;55.70;;;;;;5030858;28;20220;-61
2023/08/22 00:16:25;;;;;;;0.10;0.10;;;15.40;55.60;;;;;;5030315;28;20208;-61
2023/08/22 00:18:55;;;;;;;0.13;0.13;;;15.40;55.60;;;;;;5031033;28;20216;-61
2023/08/22 00:21:26;;;;;;;0.10;0.10;;;15.40;55.50;;;;;;5033747;28;20648;-61
2023/08/22 00:23:58;;;;;;;0.10;0.10;;;15.50;55.60;;;;;;5034486;28;20559;-61
2023/08/22 00:26:29;;;;;;;0.10;0.10;;;15.50;55.60;;;;;;5034400;28;20543;-61
2023/08/22 00:29:00;;;;;;;0.10;0.10;;;15.50;55.50;;;;;;5033772;28;20212;-61
2023/08/22 00:31:30;;;;;;;0.10;0.10;;;15.50;55.50;;;;;;5034457;28;20253;-61
2023/08/22 00:34:02;;;;;;;0.00;0.00;;;15.60;55.60;;;;;;5030349;28;20228;-60
2023/08/22 00:36:32;;;;;;;0.10;0.10;;;15.60;55.60;;;;;;5033202;28;20200;-61
2023/08/22 00:39:05;;;;;;;0.10;0.10;;;15.60;55.70;;;;;;5032723;28;20239;-60
2023/08/22 00:41:36;;;;;;;0.10;0.10;;;15.60;55.70;;;;;;5033700;28;20200;-60
2023/08/22 00:44:06;;;;;;;0.00;0.00;;;15.60;55.60;;;;;;5033450;28;20203;-60
2023/08/22 00:46:38;;;;;;;0.10;0.10;;;15.60;55.60;;;;;;5034302;28;20192;-60
2023/08/22 00:49:10;;;;;;;0.10;0.10;;;15.60;55.50;;;;;;5033211;28;20208;-60
2023/08/22 00:51:41;;;;;;;0.10;0.10;;;15.60;55.40;;;;;;5033543;28;20279;-60
2023/08/22 00:54:14;;;;;;;0.10;0.10;;;15.70;55.50;;;;;;5033358;28;20224;-60
2023/08/22 00:56:46;;;;;;;0.10;0.10;;;15.70;55.40;;;;;;5033880;28;20611;-60
2023/08/22 00:59:16;;;;;;;0.10;0.10;;;15.80;55.50;;;;;;5033208;28;20196;-60
2023/08/22 01:01:47;;;;;;;0.15;0.15;;;15.80;55.60;;;;;;5032488;28;20200;-60
2023/08/22 01:04:18;;;;;;;0.10;0.10;;;15.80;55.60;;;;;;5049485;28;20191;-60
2023/08/22 01:06:53;;;;;;;0.10;0.10;;;15.80;55.60;;;;;;5052842;28;20222;-60
2023/08/22 01:09:44;;;;;;;0.10;0.10;;;15.80;55.50;;;;;;5052618;28;20202;-60
2023/08/22 01:12:19;;;;;;;0.10;0.10;;;15.80;55.40;;;;;;5053424;28;20199;-60
2023/08/22 01:14:56;;;;;;;0.05;0.05;;;15.90;55.40;;;;;;5053248;28;20570;-60
2023/08/22 01:17:27;;;;;;;0.10;0.10;;;15.90;55.30;;;;;;5052007;28;20610;-60
2023/08/22 01:19:58;;;;;;;0.00;0.00;;;15.90;55.40;;;;;;5035226;28;20215;-60
2023/08/22 01:22:30;;;;;;;0.10;0.10;;;15.90;55.40;;;;;;5031656;28;20215;-60
2023/08/22 01:25:01;;;;;;;0.05;0.05;;;16.00;55.40;;;;;;5032420;28;20200;-61
2023/08/22 01:27:34;;;;;;;0.13;0.13;;;15.90;55.30;;;;;;5032185;28;20208;-60
2023/08/22 01:30:11;;;;;;;0.05;0.05;;;16.00;55.30;;;;;;5032887;28;20200;-60
2023/08/22 01:32:46;;;;;;;0.10;0.10;;;16.00;55.20;;;;;;5031381;28;20197;-60
2023/08/22 01:35:20;;;;;;;0.10;0.10;;;16.00;55.10;;;;;;5032137;28;20208;-61
2023/08/22 01:37:54;;;;;;;0.00;0.00;;;16.10;55.10;;;;;;5032567;28;20223;-60
2023/08/22 01:40:26;;;;;;;0.00;0.00;;;16.10;55.10;;;;;;5032505;28;20207;-61
2023/08/22 01:42:57;;;;;;;0.10;0.10;;;16.10;55.10;;;;;;5031493;28;20195;-60
2023/08/22 01:45:28;;;;;;;0.10;0.10;;;16.10;55.10;;;;;;5031779;28;20223;-60
2023/08/22 01:47:58;;;;;;;0.10;0.10;;;16.10;55.10;;;;;;5032260;28;20211;-60
2023/08/22 01:50:29;;;;;;;0.10;0.10;;;16.10;55.10;;;;;;5032208;28;20196;-60
2023/08/22 01:53:01;;;;;;;0.10;0.10;;;16.10;55.10;;;;;;5031826;28;20215;-61
2023/08/22 01:55:32;;;;;;;0.10;0.10;;;16.20;55.10;;;;;;5031540;28;20389;-61
2023/08/22 01:58:04;;;;;;;0.10;0.10;;;16.20;55.10;;;;;;5031599;28;20212;-61
2023/08/22 02:00:35;;;;;;;0.10;0.10;;;16.20;55.00;;;;;;5032495;28;20201;-61
2023/08/22 02:03:06;;;;;;;0.10;0.10;;;16.20;55.00;;;;;;5032592;28;20207;-60
2023/08/22 02:05:37;;;;;;;0.10;0.10;;;16.30;55.00;;;;;;5032356;28;20211;-60
2023/08/22 02:08:10;;;;;;;0.10;0.10;;;16.30;55.00;;;;;;5031632;28;20495;-60
2023/08/22 02:10:40;;;;;;;0.10;0.10;;;16.30;54.80;;;;;;5032034;28;20235;-60
2023/08/22 02:13:11;;;;;;;0.10;0.10;;;16.30;54.70;;;;;;5032734;28;20257;-61
2023/08/22 02:15:41;;;;;;;0.10;0.10;;;16.30;54.60;;;;;;5031566;28;20211;-60
2023/08/22 02:18:12;;;;;;;0.00;0.00;;;16.30;54.60;;;;;;5031976;28;20299;-61
2023/08/22 02:20:43;;;;;;;0.10;0.10;;;16.30;54.60;;;;;;5032165;28;20220;-60
2023/08/22 02:23:15;;;;;;;0.10;0.10;;;16.40;54.60;;;;;;5031841;28;20208;-61
2023/08/22 02:25:46;;;;;;;0.05;0.05;;;16.40;54.60;;;;;;5031898;28;20207;-60
2023/08/22 02:28:17;;;;;;;0.05;0.05;;;16.40;54.50;;;;;;5031527;28;20251;-60
2023/08/22 02:30:47;;;;;;;0.00;0.00;;;16.40;54.60;;;;;;5031996;28;20207;-60
2023/08/22 02:33:18;;;;;;;0.10;0.10;;;16.40;54.60;;;;;;5031883;28;20212;-60
2023/08/22 02:35:49;;;;;;;0.10;0.10;;;16.50;54.60;;;;;;5029846;28;20246;-61
2023/08/22 02:38:21;;;;;;;0.00;0.00;;;16.50;54.60;;;;;;5031058;28;20295;-60
2023/08/22 02:40:52;;;;;;;0.00;0.00;;;16.50;54.60;;;;;;5031290;28;20192;-61
2023/08/22 02:43:22;;;;;;;0.10;0.10;;;16.50;54.50;;;;;;5031447;28;20706;-60
2023/08/22 02:45:53;;;;;;;0.10;0.10;;;16.60;54.50;;;;;;5029247;28;20258;-61
2023/08/22 02:48:24;;;;;;;0.10;0.10;;;16.60;54.50;;;;;;5030654;28;20219;-61
2023/08/22 02:50:54;;;;;;;0.10;0.10;;;16.60;54.40;;;;;;5031129;28;20188;-61
2023/08/22 02:53:27;;;;;;;0.08;0.08;;;16.60;54.40;;;;;;5030345;28;20624;-61
2023/08/22 02:55:59;;;;;;;0.03;0.03;;;16.60;54.20;;;;;;5031447;28;20309;-60
2023/08/22 02:58:29;;;;;;;0.10;0.10;;;16.60;54.10;;;;;;5022708;28;20215;-61
2023/08/22 03:01:00;;;;;;;0.10;0.10;;;16.70;54.20;;;;;;5038965;28;20192;-61
2023/08/22 03:03:31;;;;;;;0.08;0.08;;;16.70;54.20;;;;;;5051024;28;20206;-60
2023/08/22 03:06:02;;;;;;;0.08;0.08;;;16.70;54.10;;;;;;5033057;28;20199;-60
2023/08/22 03:08:35;;;;;;;0.10;0.10;;;16.70;53.90;;;;;;5030370;28;20219;-61
2023/08/22 03:11:05;;;;;;;0.00;0.00;;;16.80;53.90;;;;;;5030838;28;20196;-61
2023/08/22 03:13:37;;;;;;;0.10;0.10;;;16.80;53.70;;;;;;5031131;28;20698;-60
2023/08/22 03:16:09;;;;;;;0.03;0.03;;;16.80;53.70;;;;;;5038169;28;20202;-61
2023/08/22 03:18:39;;;;;;;0.10;0.10;;;16.80;53.60;;;;;;5051385;28;20219;-61
2023/08/22 03:21:10;;;;;;;0.00;0.00;;;16.90;53.60;;;;;;5050810;28;20588;-60
2023/08/22 03:23:43;;;;;;;0.00;0.00;;;16.80;53.50;;;;;;5050007;28;20260;-61
2023/08/22 03:26:13;;;;;;;0.10;0.10;;;16.80;53.40;;;;;;5048028;28;20647;-61
2023/08/22 03:28:44;;;;;;;0.00;0.00;;;16.90;53.30;;;;;;5030191;28;20219;-60
2023/08/22 03:31:14;;;;;;;0.10;0.10;;;16.90;53.30;;;;;;5030067;28;20286;-61
2023/08/22 03:33:45;;;;;;;0.10;0.10;;;16.90;53.40;;;;;;5029876;28;20270;-61
2023/08/22 03:36:16;;;;;;;0.05;0.05;;;16.90;53.40;;;;;;5030494;28;20246;-61
2023/08/22 03:38:51;;;;;;;0.08;0.08;;;16.90;53.40;;;;;;5030645;28;20945;-60
2023/08/22 03:41:22;;;;;;;0.00;0.00;;;17.00;53.40;;;;;;5030852;28;20640;-61
2023/08/22 03:43:52;;;;;;;0.10;0.10;;;17.00;53.40;;;;;;5030894;28;20254;-61
2023/08/22 03:46:23;;;;;;;0.10;0.10;;;17.00;53.50;;;;;;5031314;28;20550;-61
2023/08/22 03:48:54;;;;;;;0.00;0.00;;;17.00;53.40;;;;;;5030372;28;20247;-60
2023/08/22 03:51:24;;;;;;;0.00;0.00;;;17.10;53.50;;;;;;5030332;28;20599;-61
2023/08/22 03:53:57;;;;;;;0.00;0.00;;;17.10;53.30;;;;;;5030392;28;20220;-61
2023/08/22 03:56:28;;;;;;;0.10;0.10;;;17.10;53.30;;;;;;5033589;28;20196;-61
2023/08/22 03:58:58;;;;;;;0.10;0.10;;;17.10;53.30;;;;;;5033790;28;20212;-61
2023/08/22 04:01:29;;;;;;;0.10;0.10;;;17.10;53.20;;;;;;5032585;28;20215;-62
2023/08/22 04:04:00;;;;;;;0.10;0.10;;;17.10;53.20;;;;;;5035283;28;20204;-61
2023/08/22 04:06:30;;;;;;;0.00;0.00;;;17.10;53.00;;;;;;5034949;28;20206;-61
2023/08/22 04:09:03;;;;;;;0.10;0.10;;;17.20;52.80;;;;;;5034587;28;20702;-61
2023/08/22 04:11:33;;;;;;;0.00;0.00;;;17.20;52.80;;;;;;5034426;28;20251;-61
2023/08/22 04:14:04;;;;;;;0.10;0.10;;;17.20;52.80;;;;;;5034631;28;20224;-61
2023/08/22 04:16:35;;;;;;;0.08;0.08;;;17.20;52.90;;;;;;5031845;28;20192;-61
2023/08/22 04:19:05;;;;;;;0.08;0.08;;;17.20;52.80;;;;;;5034371;28;20220;-61
2023/08/22 04:21:36;;;;;;;0.00;0.00;;;17.20;52.70;;;;;;5034122;28;20201;-61
2023/08/22 04:24:09;;;;;;;0.00;0.00;;;17.20;52.70;;;;;;5034664;28;20291;-61
2023/08/22 04:26:40;;;;;;;0.10;0.10;;;17.20;52.90;;;;;;5034225;28;20207;-61
2023/08/22 04:29:11;;;;;;;0.10;0.10;;;17.20;52.70;;;;;;5034339;28;20216;-61
2023/08/22 04:31:41;;;;;;;0.13;0.13;;;17.30;52.60;;;;;;5034543;28;20648;-61
2023/08/22 04:34:12;;;;;;;0.00;0.00;;;17.30;52.50;;;;;;5034421;28;20240;-61
2023/08/22 04:36:42;;;;;;;0.10;0.10;;;17.30;52.40;;;;;;5034717;28;20238;-62
2023/08/22 04:39:15;;;;;;;0.05;0.05;;;17.30;52.30;;;;;;5034207;28;20216;-61
2023/08/22 04:41:45;;;;;;;0.10;0.10;;;17.30;52.20;;;;;;5034016;28;20203;-62
2023/08/22 04:44:16;;;;;;;0.10;0.10;;;17.30;52.20;;;;;;5033517;28;20279;-61
2023/08/22 04:46:47;;;;;;;0.10;0.10;;;17.30;52.10;;;;;;5033476;28;20196;-61
2023/08/22 04:49:17;;;;;;;0.10;0.10;;;17.30;52.10;;;;;;5033646;28;20338;-61
2023/08/22 04:51:48;;;;;;;0.10;0.10;;;17.30;52.30;;;;;;5033739;28;20203;-62
2023/08/22 04:54:20;;;;;;;0.00;0.00;;;17.30;52.70;;;;;;5033581;28;20766;-63
2023/08/22 04:56:51;;;;;;;0.10;0.10;;;17.40;53.50;;;;;;5033304;28;20258;-62
2023/08/22 04:59:22;;;;;;;0.10;0.10;;;17.50;52.90;;;;;;5033657;28;20200;-61
2023/08/22 05:01:52;;;;;;;0.10;0.10;;;17.60;52.80;;;;;;5033523;28;20204;-61
2023/08/22 05:04:23;;;;;;;0.00;0.00;;;17.70;52.70;;;;;;5033378;28;20235;-61
2023/08/22 05:06:53;;;;;;;0.00;0.00;;;17.70;52.60;;;;;;5032725;28;20652;-61
2023/08/22 05:09:26;;;;;;;0.10;0.10;;;17.80;52.50;;;;;;5033790;28;20199;-61
2023/08/22 05:11:59;;;;;;;0.03;0.03;;;17.80;52.40;;;;;;5033689;28;20203;-59
2023/08/22 05:14:32;;;;;;;0.10;0.10;;;17.80;52.30;;;;;;5033402;28;20227;-59
2023/08/22 05:17:03;;;;;;;0.10;0.10;;;17.90;52.20;;;;;;5033258;28;20243;-59
2023/08/22 05:19:34;;;;;;;0.10;0.10;;;17.80;52.00;;;;;;5033497;28;20202;-59
2023/08/22 05:22:04;;;;;;;0.10;0.10;;;17.80;51.90;;;;;;5033674;28;20196;-59
2023/08/22 05:24:37;;;;;;;0.00;0.00;;;17.90;51.90;;;;;;5032479;28;20191;-59
2023/08/22 05:27:07;;;;;;;0.10;0.10;;;17.80;51.70;;;;;;5033322;28;20203;-59
2023/08/22 05:29:38;;;;;;;0.00;0.00;;;17.80;51.70;;;;;;5033734;28;20204;-59
2023/08/22 05:32:09;;;;;;;0.00;0.00;;;17.70;51.60;;;;;;5033471;28;20204;-60
2023/08/22 05:34:40;;;;;;;0.00;0.00;;;17.70;51.60;;;;;;5033129;28;20228;-60
2023/08/22 05:37:10;;;;;;;0.10;0.10;;;17.70;51.60;;;;;;5033224;28;20216;-60
2023/08/22 05:39:43;;;;;;;0.00;0.00;;;17.70;51.60;;;;;;5033509;28;20207;-60
2023/08/22 05:42:13;;;;;;;0.08;0.08;;;17.70;51.60;;;;;;5033006;28;20196;-60
2023/08/22 05:44:44;;;;;;;0.10;0.10;;;17.60;51.60;;;;;;5033271;28;20215;-60
2023/08/22 05:47:15;;;;;;;0.00;0.00;;;17.60;51.60;;;;;;5032558;28;20211;-60
2023/08/22 05:49:45;;;;;;;0.10;0.10;;;17.60;51.60;;;;;;5032686;28;20199;-60
2023/08/22 05:52:16;;;;;;;0.10;0.10;;;17.60;51.60;;;;;;5032851;28;20661;-60
2023/08/22 05:54:48;;;;;;;0.10;0.10;;;17.60;51.60;;;;;;5032484;28;20261;-60
2023/08/22 05:57:19;;;;;;;0.10;0.10;;;17.50;51.50;;;;;;5032765;28;20270;-60
2023/08/22 05:59:49;;;;;;;0.08;0.08;;;17.50;51.50;;;;;;5032760;28;20641;-60
2023/08/22 06:02:20;;;;;;;0.00;0.00;;;17.50;51.50;;;;;;5032426;28;20193;-60
2023/08/22 06:04:51;;;;;;;0.00;0.00;;;17.40;51.50;;;;;;5028852;28;20267;-60
2023/08/22 06:07:21;;;;;;;0.10;0.10;;;17.40;51.50;;;;;;5012714;28;20632;-59
2023/08/22 06:09:54;;;;;;;0.00;0.00;;;17.40;51.50;;;;;;5029473;28;20554;-59
2023/08/22 06:12:25;;;;;;;0.10;0.10;;;17.40;51.50;;;;;;5032517;28;20195;-59
2023/08/22 06:14:55;;;;;;;0.10;0.10;;;17.30;51.40;;;;;;5031244;28;20219;-60
2023/08/22 06:17:26;;;;;;;0.10;0.10;;;17.30;51.50;;;;;;5020862;28;20228;-60
2023/08/22 06:19:56;;;;;;;0.00;0.00;;;17.30;51.50;;;;;;5021068;28;20197;-59
2023/08/22 06:22:27;;;;;;;0.10;0.10;;;17.30;51.50;;;;;;5021460;28;20574;-60
2023/08/22 06:25:00;;;;;;;0.00;0.00;;;17.30;51.60;;;;;;5033995;28;20204;-59
2023/08/22 06:27:30;;;;;;;0.10;0.10;;;17.20;51.60;;;;;;5027570;28;20225;-60
2023/08/22 06:30:01;;;;;;;0.10;0.10;;;17.20;51.60;;;;;;5018527;28;20193;-59
2023/08/22 06:32:31;;;;;;;0.10;0.10;;;17.20;51.60;;;;;;5011298;28;20204;-59
2023/08/22 06:35:03;;;;;;;0.00;0.00;;;17.20;51.60;;;;;;5028784;28;20699;-59
2023/08/22 06:37:34;;;;;;;0.10;0.10;;;17.20;51.60;;;;;;5030658;28;20216;-59
2023/08/22 06:40:07;;;;;;;0.10;0.10;;;17.20;51.60;;;;;;5030098;28;20593;-59
2023/08/22 06:42:38;;;;;;;0.00;0.00;;;17.10;51.50;;;;;;5030784;28;20287;-59
2023/08/22 06:45:09;;;;;;;0.00;0.00;;;17.10;51.50;;;;;;5030716;28;20195;-60
2023/08/22 06:47:40;;;;;;;0.10;0.10;;;17.10;51.50;;;;;;5031910;28;20293;-59
2023/08/22 06:50:12;;;;;;;0.10;0.10;;;17.00;51.50;;;;;;5031827;28;20218;-59
2023/08/22 06:52:43;;;;;;;0.10;0.10;;;17.00;51.50;;;;;;5030738;28;20652;-59
2023/08/22 06:55:15;;;;;;;0.00;0.00;;;17.00;51.50;;;;;;5029874;28;20220;-59
2023/08/22 06:57:46;;;;;;;0.10;0.10;;;17.00;51.50;;;;;;5031105;28;20223;-59
2023/08/22 07:00:18;;;;;;;0.00;0.00;;;17.00;51.60;;;;;;5031465;28;20644;-59
2023/08/22 07:02:49;;;;;;;0.10;0.10;;;16.90;51.50;;;;;;5030741;28;20293;-59
2023/08/22 07:05:19;;;;;;;0.00;0.00;;;16.90;51.50;;;;;;5030759;28;20648;-60
2023/08/22 07:07:50;;;;;;;0.00;0.00;;;16.90;51.60;;;;;;5030365;28;20223;-59
2023/08/22 07:10:23;;;;;;;0.10;0.10;;;16.90;51.50;;;;;;5030289;28;20207;-60
2023/08/22 07:12:53;;;;;;;0.08;0.08;;;16.90;51.60;;;;;;5031380;28;20196;-59
2023/08/22 07:15:24;;;;;;;0.10;0.10;;;16.90;51.50;;;;;;5030976;28;20672;-59
2023/08/22 07:17:54;;;;;;;0.10;0.10;;;16.80;51.50;;;;;;5024363;28;20212;-59
2023/08/22 07:20:25;;;;;;;0.10;0.10;;;16.80;51.50;;;;;;5012170;28;20201;-59
2023/08/22 07:22:56;;;;;;;0.10;0.10;;;16.80;51.50;;;;;;5026739;28;20227;-60
2023/08/22 07:25:28;;;;;;;0.00;0.00;;;16.80;51.50;;;;;;5030025;28;20203;-60
2023/08/22 07:27:59;;;;;;;0.03;0.03;;;16.80;51.50;;;;;;5030973;28;20220;-60
2023/08/22 07:30:30;;;;;;;0.10;0.10;;;16.70;51.50;;;;;;5034142;28;20196;-59
2023/08/22 07:33:00;;;;;;;0.10;0.10;;;16.70;51.50;;;;;;5035414;28;20200;-59
2023/08/22 07:35:32;;;;;;;0.00;0.00;;;16.60;51.40;;;;;;5034783;28;20228;-60
2023/08/22 07:38:03;;;;;;;0.10;0.10;;;16.60;51.40;;;;;;5035186;28;20251;-59
2023/08/22 07:40:38;;;;;;;0.10;0.10;;;16.60;51.40;;;;;;5035111;28;20200;-59
2023/08/22 07:43:09;;;;;;;0.10;0.10;;;16.60;51.50;;;;;;5024458;28;20203;-59
2023/08/22 07:45:40;;;;;;;0.00;0.00;;;16.60;51.50;;;;;;5016295;28;20197;-59
2023/08/22 07:48:11;;;;;;;0.10;0.10;;;16.60;51.50;;;;;;5014295;28;20219;-59
2023/08/22 07:50:42;;;;;;;0.10;0.10;;;16.50;51.50;;;;;;5025962;28;20208;-60
2023/08/22 07:53:12;;;;;;;0.10;0.10;;;16.50;51.50;;;;;;5034024;28;20208;-60
2023/08/22 07:55:48;;;;;;;0.10;0.10;;;16.50;51.60;;;;;;5033870;28;20235;-59
2023/08/22 07:58:18;;;;;;;0.00;0.00;;;16.50;51.70;;;;;;5034346;28;20581;-59
2023/08/22 08:00:51;;;;;;;0.10;0.10;;;16.40;51.60;;;;;;5034789;28;20640;-58
2023/08/22 08:03:21;;;;;;;0.00;0.00;;;16.50;51.70;;;;;;5034779;28;20652;-59
2023/08/22 08:05:52;;;;;;;0.10;0.10;;;16.50;51.70;;;;;;5034798;28;20671;-60
2023/08/22 08:08:26;;;;;;;0.00;0.00;;;16.40;51.70;;;;;;5033632;28;20273;-60
2023/08/22 08:10:58;;;;;;;0.10;0.10;;;16.40;51.60;;;;;;5033997;28;20371;-60
2023/08/22 08:13:29;;;;;;;0.10;0.10;;;16.40;51.60;;;;;;5033816;28;20535;-60
2023/08/22 08:16:00;;;;;;;0.10;0.10;;;16.40;51.70;;;;;;5031308;28;20228;-60
2023/08/22 08:18:30;;;;;;;0.00;0.00;;;16.30;51.60;;;;;;5015787;28;20232;-59
2023/08/22 08:21:01;;;;;;;0.10;0.10;;;16.30;51.70;;;;;;5021093;28;20204;-60
2023/08/22 08:23:31;;;;;;;0.10;0.10;;;16.30;51.70;;;;;;5027696;28;20208;-59
2023/08/22 08:26:06;;;;;;;0.08;0.08;;;16.20;51.70;;;;;;5020349;28;20204;-58
2023/08/22 08:28:37;;;;;;;0.00;0.00;;;16.20;51.70;;;;;;5033625;28;20219;-60
2023/08/22 08:31:07;;;;;;;0.10;0.10;;;16.30;51.80;;;;;;5033589;28;20196;-60
2023/08/22 08:33:38;;;;;;;0.10;0.10;;;16.30;51.90;;;;;;5034066;28;20203;-59
2023/08/22 08:36:09;;;;;;;0.10;0.10;;;16.20;51.80;;;;;;5034132;28;20224;-59
2023/08/22 08:38:39;;;;;;;0.10;0.10;;;16.20;51.90;;;;;;5033518;28;20617;-60
2023/08/22 08:41:13;;;;;;;0.10;0.10;;;16.20;51.90;;;;;;5033530;28;20203;-60
2023/08/22 08:43:43;;;;;;;0.03;0.03;;;16.10;51.90;;;;;;5033546;28;20549;-59
2023/08/22 08:46:15;;;;;;;0.00;0.00;;;16.20;52.00;;;;;;5033424;28;20196;-60
2023/08/22 08:48:48;;;;;;;0.10;0.10;;;16.10;51.90;;;;;;5033708;28;20220;-58
2023/08/22 08:51:18;;;;;;;0.10;0.10;;;16.10;52.00;;;;;;5033752;28;20196;-59
2023/08/22 08:53:50;;;;;;;0.10;0.10;;;16.10;51.90;;;;;;5032932;28;20588;-59
2023/08/22 08:56:22;;;;;;;0.08;0.08;;;16.10;52.00;;;;;;5032807;28;20231;-59
2023/08/22 08:58:53;;;;;;;0.10;0.10;;;16.00;51.90;;;;;;5033480;28;20216;-59
2023/08/22 09:01:26;;;;;;;0.10;0.10;;;16.00;51.90;;;;;;5033425;28;20196;-58
2023/08/22 09:03:57;;;;;;;0.10;0.10;;;16.00;51.90;;;;;;5033008;28;20204;-59
2023/08/22 09:06:28;;;;;;;0.03;0.03;;;16.00;52.50;;;;;;5033178;28;20609;-59
2023/08/22 09:09:08;;;;;;;0.10;0.10;;;16.00;52.00;;;;;;5032210;28;20220;-59
2023/08/22 09:11:45;;;;;;;0.10;0.10;;;16.00;52.00;;;;;;5033900;28;20652;-59
2023/08/22 09:14:19;;;;;;;0.10;0.10;;;16.00;52.00;;;;;;5031549;28;20652;-59
2023/08/22 09:16:50;;;;;;;0.10;0.10;;;15.90;51.90;;;;;;5029377;28;20654;-58
2023/08/22 09:19:21;;;;;;;0.10;0.10;;;15.90;52.00;;;;;;5015010;28;20201;-60
2023/08/22 09:22:02;;;;;;;0.10;0.10;;;15.90;52.00;;;;;;5030691;28;20572;-59
2023/08/22 09:24:34;;;;;;;0.00;0.00;;;15.80;52.00;;;;;;5020329;28;20215;-58
2023/08/22 09:27:07;;;;;;;0.10;0.10;;;15.80;52.00;;;;;;5043809;28;20212;-58
2023/08/22 09:29:38;;;;;;;0.08;0.08;;;15.80;52.00;;;;;;5033195;28;20204;-59
2023/08/22 09:32:09;;;;;;;0.10;0.10;;;15.80;52.10;;;;;;5030542;28;20192;-60
2023/08/22 09:34:40;;;;;;;0.05;0.05;;;15.80;52.10;;;;;;5031829;28;20283;-59
2023/08/22 09:37:10;;;;;;;0.10;0.10;;;15.80;52.10;;;;;;5031934;28;20635;-60
2023/08/22 09:39:43;;;;;;;0.10;0.10;;;15.80;52.20;;;;;;5033307;28;20192;-59
2023/08/22 09:42:15;;;;;;;0.10;0.10;;;15.80;52.30;;;;;;5032683;28;20235;-59
2023/08/22 09:44:46;;;;;;;0.00;0.00;;;15.70;52.20;;;;;;5032753;28;20204;-59
2023/08/22 09:47:19;;;;;;;0.10;0.10;;;15.70;52.20;;;;;;5032840;28;20706;-60
2023/08/22 09:49:53;;;;;;;0.00;0.00;;;15.70;52.20;;;;;;5032233;28;20195;-59
2023/08/22 09:52:24;;;;;;;0.00;0.00;;;15.70;52.20;;;;;;5012793;28;20197;-59
2023/08/22 09:54:55;;;;;;;0.10;0.10;;;15.70;52.20;;;;;;5011280;28;20208;-59
2023/08/22 09:57:27;;;;;;;0.10;0.10;;;15.70;52.20;;;;;;5024114;28;20228;-59
2023/08/22 10:00:03;;;;;;;0.10;0.10;;;15.70;52.20;;;;;;5030981;28;20212;-59
2023/08/22 10:02:35;;;;;;;0.10;0.10;;;15.60;52.20;;;;;;5031817;28;20253;-59
2023/08/22 10:05:06;;;;;;;0.10;0.10;;;15.60;52.20;;;;;;5031611;28;20204;-58
2023/08/22 10:07:37;;;;;;;0.10;0.10;;;15.60;52.20;;;;;;5031648;28;20212;-59
2023/08/22 10:10:08;;;;;;;0.10;0.10;;;15.60;52.20;;;;;;5031648;28;20201;-60
2023/08/22 10:12:42;;;;;;;0.10;0.10;;;15.50;52.10;;;;;;5031365;28;20196;-59
2023/08/22 10:15:17;;;;;;;0.10;0.10;;;15.50;52.20;;;;;;5032021;28;20203;-59
2023/08/22 10:17:48;;;;;;;0.10;0.10;;;15.50;52.20;;;;;;5031699;28;20271;-59
2023/08/22 10:20:19;;;;;;;0.10;0.10;;;15.50;52.20;;;;;;5031954;28;20693;-59
2023/08/22 10:22:49;;;;;;;0.10;0.10;;;15.50;52.20;;;;;;5031191;28;20200;-60
2023/08/22 10:25:20;;;;;;;0.10;0.10;;;15.50;52.30;;;;;;5030177;28;20199;-59
2023/08/22 10:27:53;;;;;;;0.00;0.00;;;15.50;52.30;;;;;;5030703;28;20220;-59
2023/08/22 10:30:24;;;;;;;0.10;0.10;;;15.40;52.20;;;;;;5031501;28;20607;-60
2023/08/22 10:33:08;;;;;;;0.10;0.10;;;15.40;52.20;;;;;;5030827;28;20207;-59
2023/08/22 10:35:40;;;;;;;0.10;0.10;;;15.40;52.20;;;;;;5011887;28;20204;-59
2023/08/22 10:38:22;;;;;;;0.10;0.10;;;15.40;52.20;;;;;;5011915;28;20216;-59
2023/08/22 10:40:57;;;;;;;0.10;0.10;;;15.40;52.20;;;;;;5012243;28;20208;-59
2023/08/22 10:43:41;;;;;;;0.10;0.10;;;15.40;52.20;;;;;;5013127;28;20196;-59
2023/08/22 10:46:11;;;;;;;0.10;0.10;;;15.30;52.20;;;;;;5030690;28;20207;-60
2023/08/22 10:48:42;;;;;;;0.10;0.10;;;15.30;52.20;;;;;;5030993;28;20306;-59
2023/08/22 10:51:13;;;;;;;0.10;0.10;;;15.30;52.20;;;;;;5030943;28;20200;-59
2023/08/22 10:53:47;;;;;;;0.10;0.10;;;15.30;52.20;;;;;;5031954;28;20204;-59
2023/08/22 10:56:25;;;;;;;0.10;0.10;;;15.30;52.20;;;;;;5030826;28;20237;-59
2023/08/22 10:59:04;;;;;;;0.08;0.08;;;15.20;52.20;;;;;;5031656;28;20244;-58
2023/08/22 11:01:35;;;;;;;0.10;0.10;;;15.20;52.20;;;;;;5031076;28;20235;-59
2023/08/22 11:04:13;;;;;;;0.00;0.00;;;15.20;52.20;;;;;;5030324;28;20200;-59
2023/08/22 11:06:44;;;;;;;0.10;0.10;;;15.20;52.20;;;;;;5030377;28;20238;-59
2023/08/22 11:09:16;;;;;;;0.10;0.10;;;15.20;52.20;;;;;;5030160;28;20216;-59
2023/08/22 11:11:47;;;;;;;0.10;0.10;;;15.20;52.20;;;;;;5030122;28;20196;-59
2023/08/22 11:14:19;;;;;;;0.10;0.10;;;15.20;52.30;;;;;;5030019;28;20202;-59
2023/08/22 11:16:50;;;;;;;0.10;0.10;;;15.10;52.20;;;;;;5031590;28;20242;-58
2023/08/22 11:19:22;;;;;;;0.10;0.10;;;15.10;52.20;;;;;;5030776;28;20686;-59
2023/08/22 11:21:53;;;;;;;0.10;0.10;;;15.10;52.30;;;;;;5031554;28;20200;-59
2023/08/22 11:24:25;;;;;;;0.10;0.10;;;15.10;52.30;;;;;;5030217;28;20246;-58
2023/08/22 11:26:56;;;;;;;0.10;0.10;;;15.10;52.20;;;;;;5030614;28;20647;-59
2023/08/22 11:29:29;;;;;;;0.10;0.10;;;15.00;52.20;;;;;;5029929;28;20203;-59
2023/08/22 11:32:00;;;;;;;0.10;0.10;;;15.00;52.20;;;;;;5030067;28;20558;-59
2023/08/22 11:34:31;;;;;;;0.10;0.10;;;15.00;52.20;;;;;;5031103;28;20195;-58
2023/08/22 11:37:02;;;;;;;0.10;0.10;;;15.00;52.10;;;;;;5030884;28;20749;-59
2023/08/22 11:39:33;;;;;;;0.00;0.00;;;15.00;52.20;;;;;;5031003;28;20199;-59
2023/08/22 11:42:04;;;;;;;0.10;0.10;;;14.90;52.10;;;;;;5031283;28;20597;-60
2023/08/22 11:44:53;;;;;;;0.10;0.10;;;14.90;52.10;;;;;;5029824;28;20230;-59
2023/08/22 11:47:23;;;;;;;0.10;0.10;;;14.90;52.10;;;;;;5030051;28;20207;-59
2023/08/22 11:49:54;;;;;;;0.10;0.10;;;14.90;52.10;;;;;;5030904;28;20196;-58
2023/08/22 11:52:30;;;;;;;0.10;0.10;;;14.90;52.10;;;;;;5031084;28;20203;-58
2023/08/22 11:55:06;;;;;;;0.10;0.10;;;14.90;52.10;;;;;;5030984;28;20196;-58
2023/08/22 11:57:39;;;;;;;0.20;0.20;;;14.90;52.10;;;;;;5029346;28;20281;-58
2023/08/22 12:00:15;;;;;;;0.10;0.10;;;14.80;52.00;;;;;;5028202;28;20196;-58
2023/08/22 12:02:51;;;;;;;0.10;0.10;;;14.80;52.10;;;;;;5030867;28;20188;-58
2023/08/22 12:05:35;;;;;;;0.10;0.10;;;14.80;52.10;;;;;;5030692;28;20587;-58
2023/08/22 12:08:20;;;;;;;0.10;0.10;;;14.80;52.10;;;;;;5030582;28;20243;-58
2023/08/22 12:10:51;;;;;;;0.08;0.08;;;14.80;52.10;;;;;;5028573;28;20196;-58
2023/08/22 12:13:23;;;;;;;0.10;0.10;;;14.80;52.10;;;;;;5030752;28;20208;-58
2023/08/22 12:15:55;;;;;;;0.10;0.10;;;14.70;52.00;;;;;;5030798;28;20184;-59
2023/08/22 12:18:32;;;;;;;0.10;0.10;;;14.80;52.10;;;;;;5031525;28;20215;-58
2023/08/22 12:21:03;;;;;;;0.10;0.10;;;14.70;52.00;;;;;;5033942;28;20274;-58
2023/08/22 12:23:34;;;;;;;0.10;0.10;;;14.70;52.00;;;;;;5033850;28;20271;-58
2023/08/22 12:26:05;;;;;;;0.10;0.10;;;14.70;52.10;;;;;;5033443;28;20211;-59
2023/08/22 12:28:35;;;;;;;0.10;0.10;;;14.70;52.10;;;;;;5033844;28;20291;-58
2023/08/22 12:31:08;;;;;;;0.10;0.10;;;14.60;52.10;;;;;;5033878;28;20223;-58
2023/08/22 12:33:38;;;;;;;0.10;0.10;;;14.60;52.10;;;;;;5033775;28;20640;-58
2023/08/22 12:36:09;;;;;;;0.10;0.10;;;14.60;52.10;;;;;;5031367;28;20447;-58
2023/08/22 12:38:40;;;;;;;0.10;0.10;;;14.60;52.10;;;;;;5033830;28;20211;-58
2023/08/22 12:41:11;;;;;;;0.10;0.10;;;14.60;52.10;;;;;;5031400;28;20648;-58
2023/08/22 12:43:42;;;;;;;0.10;0.10;;;14.60;52.10;;;;;;5033294;28;20192;-58
2023/08/22 12:46:14;;;;;;;0.05;0.05;;;14.60;52.10;;;;;;5033646;28;20267;-58
2023/08/22 12:48:45;;;;;;;0.10;0.10;;;14.50;52.10;;;;;;5034445;28;20215;-58
2023/08/22 12:51:16;;;;;;;0.10;0.10;;;14.50;52.10;;;;;;5034081;28;20228;-58
2023/08/22 12:53:46;;;;;;;0.10;0.10;;;14.50;52.10;;;;;;5033716;28;20594;-58
2023/08/22 12:56:17;;;;;;;0.10;0.10;;;14.50;52.10;;;;;;5033500;28;20246;-58
2023/08/22 12:58:48;;;;;;;0.10;0.10;;;14.50;52.10;;;;;;5034118;28;20267;-58
2023/08/22 13:01:20;;;;;;;0.10;0.10;;;14.50;52.10;;;;;;5033961;28;20204;-58
2023/08/22 13:03:53;;;;;;;0.10;0.10;;;14.50;52.10;;;;;;5033482;28;20200;-58
2023/08/22 13:06:23;;;;;;;0.10;0.10;;;14.50;52.20;;;;;;5033372;28;20302;-58
2023/08/22 13:08:54;;;;;;;0.10;0.10;;;14.40;52.10;;;;;;5033607;28;20227;-58
2023/08/22 13:11:25;;;;;;;0.20;0.20;;;14.40;52.10;;;;;;5033348;28;20579;-58